Time;durP1;ratioP1;P1;durP2;ratioP2;P2;SDS_P1;SDS_P2;PMS_P1;PMS_P2;Temp;Humidity;BMP_temperature;BMP_pressure;BME280_temperature;BME280_humidity;BME280_pressure;Samples;Min_cycle;Max_cycle;Signal;HPM_P1;HPM_P2
2021/11/04 00:00:58;;;;;;;34.33;25.77;;;;;;;12.07;70.75;100646.31;5080458;28;20075;-77
2021/11/04 00:03:23;;;;;;;31.73;24.88;;;;;;;11.96;70.91;100642.81;5087022;28;20667;-80
2021/11/04 00:05:49;;;;;;;39.30;28.15;;;;;;;12.22;70.08;100663.78;5079752;28;20032;-76
2021/11/04 00:08:14;;;;;;;38.20;27.50;;;;;;;11.35;72.78;100641.06;5079204;28;20108;-76
2021/11/04 00:10:40;;;;;;;39.78;28.52;;;;;;;10.81;75.04;100627.88;5079610;28;20024;-76
2021/11/04 00:13:05;;;;;;;33.28;25.27;;;;;;;11.16;74.59;100627.06;5076650;28;20244;-77
2021/11/04 00:15:32;;;;;;;31.23;27.23;;;;;;;10.60;75.72;100572.72;5068771;28;20035;-77
2021/11/04 00:17:58;;;;;;;42.65;29.92;;;;;;;10.52;76.69;100591.94;5075266;28;20028;-76
2021/11/04 00:20:25;;;;;;;38.28;25.00;;;;;;;10.20;76.86;100555.06;5081086;28;20042;-77
2021/11/04 00:22:51;;;;;;;40.47;30.52;;;;;;;10.25;77.29;100611.03;5067748;28;20063;-77
2021/11/04 00:25:20;;;;;;;32.53;27.48;;;;;;;10.04;77.60;100582.94;5075721;28;20546;-76
2021/11/04 00:27:46;;;;;;;43.42;30.15;;;;;;;10.29;77.37;100615.44;5074655;28;20031;-78
2021/11/04 00:30:12;;;;;;;40.88;29.02;;;;;;;9.86;78.64;100589.00;5074527;28;20032;-77
2021/11/04 00:32:44;;;;;;;44.45;27.33;;;;;;;10.09;78.43;100598.69;5086628;28;20042;-77
2021/11/04 00:35:09;;;;;;;41.20;26.75;;;;;;;9.85;78.78;100566.25;5080163;28;20032;-77
2021/11/04 00:37:35;;;;;;;46.63;30.10;;;;;;;10.28;77.21;100612.81;5075906;28;20063;-77
2021/11/04 00:40:00;;;;;;;38.13;29.52;;;;;;;10.12;78.04;100606.59;5076154;28;20458;-77
2021/11/04 00:42:26;;;;;;;31.80;24.83;;;;;;;9.90;78.33;100571.53;5081513;28;20046;-76
2021/11/04 00:44:52;;;;;;;34.17;27.50;;;;;;;10.60;76.83;100614.69;5085324;28;20595;-76
2021/11/04 00:47:17;;;;;;;46.30;28.02;;;;;;;10.32;77.12;100627.69;5076113;28;20036;-78
2021/11/04 00:49:43;;;;;;;34.95;27.48;;;;;;;10.23;77.37;100631.16;5084292;28;20039;-77
2021/11/04 00:52:08;;;;;;;35.72;28.63;;;;;;;10.05;76.73;100584.72;5066388;28;20149;-77
2021/11/04 00:54:34;;;;;;;38.78;27.77;;;;;;;10.25;77.27;100634.63;5076804;28;20123;-77
2021/11/04 00:56:59;;;;;;;38.45;28.08;;;;;;;9.98;77.21;100618.78;5078313;28;20144;-77
2021/11/04 00:59:25;;;;;;;37.30;27.75;;;;;;;9.71;78.23;100575.78;5081239;28;20111;-76
2021/11/04 01:01:50;;;;;;;34.15;25.48;;;;;;;9.87;79.01;100618.69;5084896;28;21635;-75
2021/11/04 01:04:16;;;;;;;31.02;24.25;;;;;;;10.48;77.01;100626.88;5082546;28;20032;-76
2021/11/04 01:06:41;;;;;;;35.30;27.20;;;;;;;10.66;75.79;100628.72;5074292;28;20747;-77
2021/11/04 01:09:07;;;;;;;38.80;27.67;;;;;;;10.20;77.03;100632.84;5080379;28;20028;-76
2021/11/04 01:11:32;;;;;;;34.53;27.92;;;;;;;9.85;78.15;100621.28;5075941;28;20664;-76
2021/11/04 01:13:58;;;;;;;48.08;31.02;;;;;;;9.68;79.06;100621.19;5073619;28;20028;-75
2021/11/04 01:16:24;;;;;;;43.13;29.73;;;;;;;9.79;79.09;100618.66;5079141;28;20130;-77
2021/11/04 01:18:49;;;;;;;35.28;26.65;;;;;;;9.92;78.19;100591.63;5084985;28;20480;-75
2021/11/04 01:21:15;;;;;;;47.22;32.38;;;;;;;9.91;77.51;100597.75;5078149;28;20146;-75
2021/11/04 01:23:40;;;;;;;34.55;27.80;;;;;;;9.92;78.32;100646.69;5077765;28;20032;-75
2021/11/04 01:26:06;;;;;;;34.65;24.85;;;;;;;10.27;77.30;100646.00;5064598;28;20072;-75
2021/11/04 01:28:32;;;;;;;39.40;27.55;;;;;;;9.96;78.20;100628.38;5073656;28;20067;-76
2021/11/04 01:30:57;;;;;;;40.15;28.90;;;;;;;9.89;78.76;100617.84;5073469;28;20035;-76
2021/11/04 01:33:23;;;;;;;39.50;26.17;;;;;;;10.15;78.27;100614.47;5067244;28;20060;-75
2021/11/04 01:35:49;;;;;;;40.03;27.77;;;;;;;9.77;79.05;100609.91;5075983;28;20081;-75
2021/11/04 01:38:17;;;;;;;42.10;27.15;;;;;;;9.71;79.52;100620.34;5065468;28;20040;-76
2021/11/04 01:40:43;;;;;;;41.15;28.90;;;;;;;9.63;79.00;100582.75;5074258;28;20036;-76
2021/11/04 01:43:08;;;;;;;39.30;28.67;;;;;;;9.97;78.69;100624.88;5054325;28;20472;-76
2021/11/04 01:45:34;;;;;;;39.63;25.95;;;;;;;10.42;77.26;100631.22;5076316;28;20545;-76
2021/11/04 01:48:04;;;;;;;35.00;28.55;;;;;;;10.22;77.00;100625.88;5052836;28;20859;-76
2021/11/04 01:50:31;;;;;;;42.30;30.30;;;;;;;9.63;78.33;100573.13;5081577;28;20025;-74
2021/11/04 01:52:57;;;;;;;39.47;29.05;;;;;;;9.69;78.75;100617.72;5075395;28;20055;-75
2021/11/04 01:55:25;;;;;;;36.72;27.08;;;;;;;9.50;79.98;100640.28;5077257;28;20758;-77
2021/11/04 01:57:51;;;;;;;40.53;29.38;;;;;;;10.07;77.53;100624.94;5081364;28;20058;-78
2021/11/04 02:00:19;;;;;;;47.83;29.40;;;;;;;9.41;78.89;100571.22;5085095;28;20048;-77
2021/11/04 02:03:14;;;;;;;34.63;27.30;;;;;;;9.72;79.17;100622.97;5079869;28;20034;-78
2021/11/04 02:05:57;;;;;;;34.47;26.05;;;;;;;10.10;77.80;100624.94;5081002;28;20151;-78
2021/11/04 02:08:36;;;;;;;41.42;29.98;;;;;;;10.29;76.93;100610.22;5081207;28;20063;-78
2021/11/04 02:11:15;;;;;;;37.67;26.80;;;;;;;10.74;74.17;100582.34;5079667;28;20035;-78
2021/11/04 02:13:48;;;;;;;33.92;26.35;;;;;;;10.51;75.13;100613.81;5079996;28;20032;-77
2021/11/04 02:16:16;;;;;;;32.20;25.65;;;;;;;10.05;76.60;100615.31;5063735;28;20059;-76
2021/11/04 02:18:42;;;;;;;40.58;26.60;;;;;;;10.22;76.36;100632.00;5084834;28;20040;-77
2021/11/04 02:21:44;;;;;;;36.03;26.58;;;;;;;10.09;76.86;100635.41;5086476;28;20055;-78
2021/11/04 02:24:19;;;;;;;38.72;26.35;;;;;;;9.97;77.72;100636.22;5083459;28;20032;-76
2021/11/04 02:26:45;;;;;;;33.95;24.90;;;;;;;9.82;77.91;100631.75;5083851;28;20040;-76
2021/11/04 02:29:12;;;;;;;38.53;26.23;;;;;;;9.51;77.84;100584.41;5079872;28;20036;-77
2021/11/04 02:31:37;;;;;;;37.85;27.17;;;;;;;9.54;77.84;100574.81;5072883;28;20081;-76
2021/11/04 02:34:03;;;;;;;36.08;25.75;;;;;;;9.40;78.34;100578.19;5071753;28;20405;-76
2021/11/04 02:36:30;;;;;;;35.00;27.23;;;;;;;9.65;77.83;100581.88;5072812;28;20124;-77
2021/11/04 02:38:57;;;;;;;37.25;26.58;;;;;;;10.81;74.89;100630.50;5086680;28;20059;-77
2021/11/04 02:41:23;;;;;;;33.05;24.95;;;;;;;11.36;72.69;100616.56;5085727;28;20135;-77
2021/11/04 02:43:49;;;;;;;39.08;27.88;;;;;;;11.24;72.23;100622.69;5087589;28;20039;-78
2021/11/04 02:46:15;;;;;;;35.72;24.80;;;;;;;11.14;73.01;100629.72;5065681;28;20039;-76
2021/11/04 02:48:42;;;;;;;40.95;24.48;;;;;;;11.58;70.95;100596.41;5083336;28;20654;-77
2021/11/04 02:51:08;;;;;;;33.97;23.92;;;;;;;11.89;69.26;100584.09;5084651;28;20029;-77
2021/11/04 02:53:34;;;;;;;32.72;23.10;;;;;;;12.25;68.73;100638.38;5087931;28;20552;-75
2021/11/04 02:55:59;;;;;;;31.90;22.20;;;;;;;11.97;69.03;100602.50;5085439;28;20487;-76
2021/11/04 02:58:26;;;;;;;27.95;22.95;;;;;;;12.20;69.52;100629.63;5080437;28;20101;-76
2021/11/04 03:00:56;;;;;;;24.95;19.00;;;;;;;12.58;68.53;100630.34;5081409;28;20059;-75
2021/11/04 03:03:21;;;;;;;31.92;24.00;;;;;;;12.13;69.35;100627.03;5074260;28;20127;-76
2021/11/04 03:05:47;;;;;;;31.23;23.67;;;;;;;10.89;72.82;100593.78;5082208;28;20032;-77
2021/11/04 03:08:13;;;;;;;31.90;21.15;;;;;;;11.12;73.11;100630.53;5086526;28;20039;-77
2021/11/04 03:10:39;;;;;;;26.45;22.25;;;;;;;11.81;71.03;100612.16;5087482;28;20032;-76
2021/11/04 03:13:04;;;;;;;29.63;22.73;;;;;;;11.09;72.90;100635.81;5080676;28;20040;-78
2021/11/04 03:15:37;;;;;;;30.08;21.55;;;;;;;10.61;74.85;100616.47;5080663;28;20028;-77
2021/11/04 03:18:03;;;;;;;26.27;18.95;;;;;;;10.75;75.08;100646.25;5081856;28;20072;-76
2021/11/04 03:20:29;;;;;;;32.15;23.40;;;;;;;11.14;74.07;100644.56;5083269;28;20036;-75
2021/11/04 03:22:57;;;;;;;30.33;22.00;;;;;;;10.57;75.46;100652.28;5061866;28;20131;-77
2021/11/04 03:25:23;;;;;;;31.15;20.42;;;;;;;10.62;75.80;100666.31;5069036;28;20060;-76
2021/11/04 03:27:51;;;;;;;38.33;22.75;;;;;;;10.30;76.57;100646.06;5086039;28;20514;-76
2021/11/04 03:30:22;;;;;;;37.10;19.95;;;;;;;10.49;76.25;100654.03;5074984;28;20041;-76
2021/11/04 03:32:48;;;;;;;40.67;19.80;;;;;;;10.49;76.16;100657.53;5082325;28;20118;-76
2021/11/04 03:35:15;;;;;;;29.48;22.45;;;;;;;10.44;76.42;100637.38;5083722;28;20033;-77
2021/11/04 03:37:45;;;;;;;29.92;22.13;;;;;;;10.02;78.24;100651.97;5077840;28;20039;-77
2021/11/04 03:40:11;;;;;;;32.58;22.90;;;;;;;10.29;77.79;100665.28;5088493;28;20036;-76
2021/11/04 03:42:39;;;;;;;33.40;21.73;;;;;;;10.37;77.10;100675.81;5066616;28;20457;-76
2021/11/04 03:45:07;;;;;;;27.27;21.45;;;;;;;10.09;77.11;100648.53;5078686;28;20028;-76
2021/11/04 03:47:33;;;;;;;31.15;23.35;;;;;;;10.14;77.32;100663.44;5084242;28;20487;-75
2021/11/04 03:50:00;;;;;;;24.65;19.60;;;;;;;10.19;77.52;100673.06;5077946;28;20027;-76
2021/11/04 03:52:28;;;;;;;35.80;21.60;;;;;;;10.24;77.12;100659.09;5079058;28;20098;-77
2021/11/04 03:54:54;;;;;;;27.58;21.17;;;;;;;10.31;76.88;100645.19;5081362;28;20028;-76
2021/11/04 03:57:24;;;;;;;27.30;20.48;;;;;;;10.49;76.63;100669.78;5073558;28;20071;-76
2021/11/04 03:59:51;;;;;;;29.38;20.63;;;;;;;10.81;75.32;100629.63;5079209;28;20118;-76
2021/11/04 04:02:16;;;;;;;27.75;19.10;;;;;;;11.48;73.73;100674.38;5086698;28;20052;-76
2021/11/04 04:04:55;;;;;;;27.55;20.05;;;;;;;11.41;72.85;100670.88;5079496;28;20089;-77
2021/11/04 04:07:26;;;;;;;27.60;20.40;;;;;;;10.94;73.83;100641.91;5061702;28;20403;-76
2021/11/04 04:09:52;;;;;;;29.30;20.67;;;;;;;11.52;72.80;100669.97;5071701;28;20040;-77
2021/11/04 04:12:17;;;;;;;33.17;22.83;;;;;;;11.58;71.53;100630.56;5074911;28;20059;-77
2021/11/04 04:14:43;;;;;;;25.27;20.05;;;;;;;12.02;70.30;100627.03;5083601;28;20369;-75
2021/11/04 04:17:08;;;;;;;25.88;19.63;;;;;;;12.34;69.48;100648.00;5071066;28;20088;-75
2021/11/04 04:19:34;;;;;;;25.50;20.20;;;;;;;12.52;69.32;100659.31;5085043;28;20032;-75
2021/11/04 04:22:00;;;;;;;25.92;19.67;;;;;;;12.15;69.79;100670.84;5070394;28;20044;-76
2021/11/04 04:24:25;;;;;;;25.45;20.23;;;;;;;11.79;71.09;100667.34;5052134;28;20428;-77
2021/11/04 04:26:51;;;;;;;25.08;19.55;;;;;;;12.04;71.07;100670.88;5051311;28;20037;-78
2021/11/04 04:29:16;;;;;;;28.92;20.77;;;;;;;11.52;72.09;100662.09;5076140;28;20491;-76
2021/11/04 04:31:42;;;;;;;26.35;20.38;;;;;;;10.87;74.52;100669.03;5082757;28;20020;-77
2021/11/04 04:34:08;;;;;;;22.98;19.38;;;;;;;10.32;75.63;100610.25;5067985;28;20467;-76
2021/11/04 04:36:34;;;;;;;28.33;22.58;;;;;;;10.44;76.56;100676.72;5083840;28;20118;-76
2021/11/04 04:38:59;;;;;;;24.10;19.42;;;;;;;10.46;76.71;100678.47;5068841;28;20483;-76
2021/11/04 04:41:25;;;;;;;29.13;20.20;;;;;;;10.73;75.51;100669.84;5071199;28;20051;-75
2021/11/04 04:43:50;;;;;;;26.40;19.23;;;;;;;10.55;75.49;100641.78;5077623;28;20067;-74
2021/11/04 04:46:18;;;;;;;27.67;20.30;;;;;;;10.51;75.20;100647.00;5065471;28;20048;-76
2021/11/04 04:48:43;;;;;;;27.50;21.42;;;;;;;10.55;76.57;100686.38;5056831;28;20036;-75
2021/11/04 04:51:09;;;;;;;26.38;22.23;;;;;;;10.33;77.13;100681.94;5083501;28;20524;-74
2021/11/04 04:53:34;;;;;;;34.13;20.63;;;;;;;10.44;76.38;100681.97;5062870;28;20028;-75
2021/11/04 04:56:00;;;;;;;33.28;22.70;;;;;;;10.31;76.99;100687.16;5083187;28;20499;-76
2021/11/04 04:58:25;;;;;;;31.02;21.33;;;;;;;10.17;77.66;100698.41;5072954;28;20399;-76
2021/11/04 05:00:51;;;;;;;24.73;20.00;;;;;;;10.21;77.77;100694.91;5077958;28;20396;-76
2021/11/04 05:03:16;;;;;;;25.73;20.85;;;;;;;9.86;78.07;100658.88;5060884;28;20118;-76
2021/11/04 05:05:42;;;;;;;29.25;19.55;;;;;;;10.33;76.98;100680.19;5069335;28;20119;-75
2021/11/04 05:08:07;;;;;;;36.67;20.98;;;;;;;10.46;76.14;100680.22;5079162;28;20039;-76
2021/11/04 05:10:33;;;;;;;31.88;23.80;;;;;;;10.48;76.04;100676.75;5085531;28;20040;-78
2021/11/04 05:12:58;;;;;;;31.92;23.98;;;;;;;10.36;76.80;100687.19;5069353;28;20636;-76
2021/11/04 05:15:24;;;;;;;27.10;21.98;;;;;;;10.85;75.02;100678.66;5081659;28;20065;-77
2021/11/04 05:17:50;;;;;;;32.35;22.23;;;;;;;10.70;74.53;100634.84;5076679;28;20036;-77
2021/11/04 05:20:16;;;;;;;35.05;22.55;;;;;;;11.37;72.88;100687.50;5059719;28;20495;-76
2021/11/04 05:22:41;;;;;;;29.13;21.90;;;;;;;11.39;72.95;100693.63;5082635;28;20035;-75
2021/11/04 05:25:07;;;;;;;26.45;19.38;;;;;;;11.82;71.18;100683.16;5084066;28;20067;-75
2021/11/04 05:27:33;;;;;;;31.83;22.42;;;;;;;11.51;70.61;100640.19;5067454;28;20466;-76
2021/11/04 05:29:59;;;;;;;35.58;23.90;;;;;;;10.96;72.85;100638.41;5070500;28;20758;-75
2021/11/04 05:32:24;;;;;;;32.20;22.65;;;;;;;11.19;73.19;100666.44;5071367;28;20081;-76
2021/11/04 05:34:50;;;;;;;30.80;22.92;;;;;;;10.48;75.59;100662.75;5071463;28;20060;-76
2021/11/04 05:37:16;;;;;;;29.00;23.67;;;;;;;10.74;74.94;100662.84;5043261;28;20032;-75
2021/11/04 05:39:42;;;;;;;32.92;21.63;;;;;;;10.57;75.74;100665.41;5078600;28;20107;-75
2021/11/04 05:42:08;;;;;;;28.58;20.95;;;;;;;10.41;76.11;100669.72;5051270;28;20039;-74
2021/11/04 05:44:37;;;;;;;34.08;22.42;;;;;;;10.85;74.51;100655.88;5068902;28;20036;-76
2021/11/04 05:47:06;;;;;;;35.17;23.75;;;;;;;10.73;74.34;100654.09;5084584;28;20036;-75
2021/11/04 05:49:32;;;;;;;32.30;23.60;;;;;;;10.49;75.82;100685.50;5069302;28;20039;-77
2021/11/04 05:51:58;;;;;;;34.92;25.73;;;;;;;10.07;77.15;100685.25;5056260;28;20127;-76
2021/11/04 05:54:23;;;;;;;32.90;21.73;;;;;;;10.40;76.77;100694.19;5057260;28;20123;-78
2021/11/04 05:56:50;;;;;;;33.00;25.50;;;;;;;10.35;76.55;100703.81;5082360;28;20071;-77
2021/11/04 05:59:16;;;;;;;37.28;26.48;;;;;;;9.75;78.99;100719.06;5083990;28;20039;-77
2021/11/04 06:01:41;;;;;;;44.25;26.92;;;;;;;10.09;78.13;100727.19;5075127;28;20146;-77
2021/11/04 06:04:07;;;;;;;41.50;29.13;;;;;;;9.95;78.69;100721.88;5067490;28;20036;-76
2021/11/04 06:06:32;;;;;;;32.83;24.30;;;;;;;10.43;77.35;100735.31;5082686;28;20032;-76
2021/11/04 06:08:58;;;;;;;32.83;26.00;;;;;;;10.53;76.63;100748.47;5077553;28;20024;-75
2021/11/04 06:11:23;;;;;;;43.92;26.23;;;;;;;10.06;77.57;100721.91;5082437;28;20066;-76
2021/11/04 06:13:49;;;;;;;46.88;28.70;;;;;;;9.83;79.36;100732.22;5080164;28;20198;-76
2021/11/04 06:16:15;;;;;;;39.40;26.17;;;;;;;9.49;80.86;100727.56;5085184;28;20773;-76
2021/11/04 06:18:42;;;;;;;39.13;27.02;;;;;;;9.80;80.52;100727.84;5080592;28;20429;-76
2021/11/04 06:21:09;;;;;;;52.83;24.55;;;;;;;9.78;80.92;100737.44;5067293;28;20028;-77
2021/11/04 06:23:34;;;;;;;59.00;28.95;;;;;;;9.84;80.78;100705.16;5080433;28;20270;-77
2021/11/04 06:26:00;;;;;;;45.13;26.55;;;;;;;10.32;79.57;100736.13;5076885;28;20032;-77
2021/11/04 06:28:25;;;;;;;59.30;27.80;;;;;;;9.97;80.06;100729.72;5057710;28;20040;-78
2021/11/04 06:30:51;;;;;;;46.72;28.17;;;;;;;10.03;79.62;100659.00;5069615;28;20021;-76
2021/11/04 06:33:16;;;;;;;45.78;26.88;;;;;;;11.37;76.49;100739.16;5068534;28;20039;-77
2021/11/04 06:35:42;;;;;;;36.47;26.25;;;;;;;10.72;77.06;100711.81;5078061;28;20123;-77
2021/11/04 06:38:08;;;;;;;39.00;26.92;;;;;;;11.40;75.59;100739.16;5067629;28;20036;-78
2021/11/04 06:40:33;;;;;;;37.40;27.33;;;;;;;11.10;76.67;100750.50;5085313;28;20361;-76
2021/11/04 06:42:59;;;;;;;43.03;25.80;;;;;;;11.54;75.69;100776.88;5061207;28;20416;-78
2021/11/04 06:45:24;;;;;;;38.75;28.25;;;;;;;11.35;76.15;100781.19;5073850;28;20117;-68
2021/11/04 06:47:52;;;;;;;64.13;31.23;;;;;;;10.82;77.29;100752.16;5073909;28;20513;-68
2021/11/04 06:50:23;;;;;;;51.60;31.25;;;;;;;11.52;76.21;100768.13;5084885;28;20134;-68
2021/11/04 06:52:56;;;;;;;59.75;28.48;;;;;;;11.31;75.57;100732.16;5088072;28;20043;-67
2021/11/04 06:55:26;;;;;;;56.45;29.80;;;;;;;11.64;75.53;100766.38;5087983;28;20071;-68
2021/11/04 06:57:57;;;;;;;57.90;31.85;;;;;;;11.26;76.26;100788.16;5085571;28;20036;-67
2021/11/04 07:00:24;;;;;;;92.05;32.72;;;;;;;10.40;78.71;100748.41;5086124;28;20048;-69
2021/11/04 07:02:55;;;;;;;80.72;27.90;;;;;;;10.38;79.46;100755.41;5082375;28;20035;-68
2021/11/04 07:05:21;;;;;;;41.33;28.00;;;;;;;11.20;78.20;100787.28;5077775;28;20032;-68
2021/11/04 07:07:50;;;;;;;46.60;26.00;;;;;;;10.67;79.14;100798.41;5075689;28;20774;-68
2021/11/04 07:10:22;;;;;;;59.58;25.40;;;;;;;11.22;78.18;100810.06;5073298;28;20562;-67
2021/11/04 07:12:49;;;;;;;40.67;24.55;;;;;;;11.11;77.82;100757.50;5060194;28;20028;-67
2021/11/04 07:15:18;;;;;;;34.05;21.75;;;;;;;11.53;76.22;100761.09;5081910;28;20060;-65
2021/11/04 07:17:45;;;;;;;60.05;25.05;;;;;;;11.26;76.53;100757.56;5083031;28;20142;-68
2021/11/04 07:20:13;;;;;;;56.83;25.33;;;;;;;10.41;79.47;100765.91;5083821;28;20050;-67
2021/11/04 07:22:47;;;;;;;47.53;27.42;;;;;;;10.52;81.00;100799.22;5085708;28;20123;-67
2021/11/04 07:25:15;;;;;;;37.83;24.30;;;;;;;10.75;80.23;100780.09;5080945;28;20035;-69
2021/11/04 07:27:59;;;;;;;119.13;31.25;;;;;;;10.31;81.26;100792.06;5085929;28;20207;-66
2021/11/04 07:30:26;;;;;;;40.80;21.70;;;;;;;10.44;81.72;100745.81;5073780;28;20130;-68
2021/11/04 07:32:57;;;;;;;59.50;25.73;;;;;;;10.76;80.85;100774.84;5087220;28;20044;-67
2021/11/04 07:35:27;;;;;;;29.50;21.38;;;;;;;11.36;79.00;100737.44;5086364;28;20052;-68
2021/11/04 07:37:54;;;;;;;46.03;25.10;;;;;;;11.38;77.22;100738.31;5082770;28;20028;-67
2021/11/04 07:40:22;;;;;;;38.53;22.98;;;;;;;11.07;79.71;100763.59;5082531;28;20043;-67
2021/11/04 07:42:48;;;;;;;58.33;27.02;;;;;;;10.82;80.59;100767.91;5078825;28;20127;-67
2021/11/04 07:45:14;;;;;;;34.95;23.27;;;;;;;11.48;78.88;100752.34;5081319;28;20066;-68
2021/11/04 07:47:41;;;;;;;43.85;22.58;;;;;;;11.32;78.96;100773.31;5085350;28;20118;-67
2021/11/04 07:50:09;;;;;;;49.08;24.38;;;;;;;10.86;80.17;100757.38;5086568;28;20067;-66
2021/11/04 07:52:37;;;;;;;53.10;25.50;;;;;;;10.72;80.82;100725.84;5085139;28;20075;-68
2021/11/04 07:55:04;;;;;;;37.50;25.52;;;;;;;10.75;81.67;100764.34;5078889;28;20039;-68
2021/11/04 07:57:31;;;;;;;43.95;25.83;;;;;;;11.50;79.70;100761.09;5074872;28;20029;-67
2021/11/04 07:59:56;;;;;;;38.70;26.23;;;;;;;11.81;77.62;100696.28;5076706;28;20117;-67
2021/11/04 08:02:22;;;;;;;36.03;24.75;;;;;;;12.65;75.11;100740.00;5080388;28;20777;-77
2021/11/04 08:04:47;;;;;;;35.28;26.25;;;;;;;13.16;72.70;100711.69;5078775;28;20060;-67
2021/11/04 08:07:13;;;;;;;35.15;25.65;;;;;;;12.72;73.85;100732.97;5085834;28;20047;-69
2021/11/04 08:09:38;;;;;;;35.03;26.73;;;;;;;13.62;72.11;100747.44;5065683;28;20123;-68
2021/11/04 08:12:04;;;;;;;35.80;26.90;;;;;;;13.62;71.24;100753.56;5081319;28;20547;-69
2021/11/04 08:14:30;;;;;;;34.00;27.33;;;;;;;12.97;73.50;100747.78;5085579;28;20365;-67
2021/11/04 08:16:55;;;;;;;34.58;27.33;;;;;;;12.67;74.39;100739.13;5084224;28;20102;-66
2021/11/04 08:19:21;;;;;;;40.83;29.95;;;;;;;12.55;74.64;100723.38;5078776;28;20432;-68
2021/11/04 08:21:47;;;;;;;40.67;28.25;;;;;;;12.99;74.03;100755.66;5063347;28;20071;-68
2021/11/04 08:24:12;;;;;;;39.85;29.63;;;;;;;12.67;74.05;100706.66;5069806;28;20532;-67
2021/11/04 08:26:38;;;;;;;39.35;29.13;;;;;;;13.35;71.95;100720.38;5082354;28;20162;-67
2021/11/04 08:29:03;;;;;;;45.78;30.13;;;;;;;14.01;70.74;100753.28;5085472;28;20028;-67
2021/11/04 08:31:30;;;;;;;37.65;29.15;;;;;;;14.09;69.84;100751.44;5071191;28;20443;-67
2021/11/04 08:33:56;;;;;;;41.97;29.10;;;;;;;13.94;70.48;100748.06;5069024;28;20036;-67
2021/11/04 08:36:21;;;;;;;34.17;24.85;;;;;;;13.62;71.85;100752.72;5080653;28;20391;-66
2021/11/04 08:38:47;;;;;;;35.08;26.50;;;;;;;13.86;71.26;100744.63;5067433;28;20040;-67
2021/11/04 08:41:13;;;;;;;34.33;26.27;;;;;;;13.89;70.95;100746.38;5081380;28;20036;-67
2021/11/04 08:43:38;;;;;;;32.78;26.23;;;;;;;13.67;71.72;100761.47;5078019;28;20036;-67
2021/11/04 08:46:04;;;;;;;32.55;27.75;;;;;;;14.01;71.05;100746.25;5072577;28;20036;-66
2021/11/04 08:48:30;;;;;;;38.63;28.33;;;;;;;14.18;69.87;100754.00;5069044;28;20113;-67
2021/11/04 08:50:55;;;;;;;34.30;24.92;;;;;;;14.44;69.25;100721.19;5081213;28;20104;-67
2021/11/04 08:53:21;;;;;;;40.28;25.77;;;;;;;14.63;68.32;100711.31;5078257;28;20133;-66
2021/11/04 08:55:47;;;;;;;35.08;25.42;;;;;;;14.43;68.48;100701.84;5082856;28;20051;-67
2021/11/04 08:58:14;;;;;;;33.60;24.50;;;;;;;14.62;68.69;100749.22;5084862;28;20045;-67
2021/11/04 09:00:40;;;;;;;38.22;27.13;;;;;;;14.96;68.03;100760.22;5081924;28;20396;-67
2021/11/04 09:03:06;;;;;;;35.88;25.67;;;;;;;15.67;65.75;100741.63;5084789;28;20055;-67
2021/11/04 09:05:31;;;;;;;40.40;25.13;;;;;;;15.28;66.76;100751.88;5079748;28;20043;-67
2021/11/04 09:07:57;;;;;;;34.35;24.58;;;;;;;14.92;68.70;100747.97;5069732;28;20539;-67
2021/11/04 09:10:23;;;;;;;31.88;25.42;;;;;;;14.71;68.86;100728.84;5070768;28;20490;-67
2021/11/04 09:12:49;;;;;;;53.33;26.48;;;;;;;15.10;67.42;100709.84;5075978;28;20040;-67
2021/11/04 09:15:16;;;;;;;38.58;25.75;;;;;;;15.41;66.92;100742.88;5075010;28;20082;-73
2021/11/04 09:17:42;;;;;;;36.60;23.27;;;;;;;15.99;65.08;100738.50;5075919;28;20044;-73
2021/11/04 09:20:09;;;;;;;36.83;25.10;;;;;;;15.31;66.67;100745.66;5084871;28;20032;-73
2021/11/04 09:22:35;;;;;;;43.05;28.92;;;;;;;15.43;66.90;100703.22;5069961;28;21050;-73
2021/11/04 09:25:03;;;;;;;33.33;24.17;;;;;;;15.16;67.69;100722.97;5069976;28;20032;-75
2021/11/04 09:27:28;;;;;;;31.52;25.25;;;;;;;15.11;68.35;100730.97;5069903;28;20131;-73
2021/11/04 09:29:56;;;;;;;35.40;26.90;;;;;;;14.97;68.18;100694.16;5068472;28;20210;-73
2021/11/04 09:32:22;;;;;;;41.05;26.38;;;;;;;15.15;68.26;100713.31;5079577;28;20032;-73
2021/11/04 09:34:47;;;;;;;36.17;25.25;;;;;;;15.39;67.36;100691.78;5085778;28;20027;-74
2021/11/04 09:37:14;;;;;;;31.02;25.90;;;;;;;14.94;69.26;100714.47;5062410;28;20039;-73
2021/11/04 09:39:40;;;;;;;34.17;25.42;;;;;;;15.20;68.00;100683.25;5067576;28;20032;-73
2021/11/04 09:42:06;;;;;;;30.15;25.35;;;;;;;16.04;66.08;100722.53;5083612;28;20047;-73
2021/11/04 09:44:33;;;;;;;35.72;25.50;;;;;;;16.21;65.01;100687.78;5079133;28;20031;-73
2021/11/04 09:46:59;;;;;;;34.75;25.20;;;;;;;16.74;63.86;100735.31;5080908;28;20522;-74
2021/11/04 09:49:28;;;;;;;58.90;27.70;;;;;;;16.39;65.20;100727.19;5081137;28;20044;-73
2021/11/04 09:51:57;;;;;;;33.88;25.77;;;;;;;16.10;65.15;100703.88;5069190;28;20319;-72
2021/11/04 09:54:24;;;;;;;35.88;26.00;;;;;;;15.66;66.91;100739.84;5074125;28;20050;-73
2021/11/04 09:56:49;;;;;;;38.72;26.73;;;;;;;16.01;65.93;100699.63;5068253;28;20036;-73
2021/11/04 09:59:15;;;;;;;35.25;27.63;;;;;;;16.14;65.96;100739.97;5069365;28;20586;-74
2021/11/04 10:01:48;;;;;;;35.30;25.83;;;;;;;15.80;66.68;100721.16;5051945;28;20049;-74
2021/11/04 10:04:14;;;;;;;;;;;;;;;16.04;66.49;100738.41;5069174;28;20025;-71
2021/11/04 10:06:40;;;;;;;34.45;26.88;;;;;;;16.97;63.88;100741.06;5073816;28;19919;-73
2021/11/04 10:09:11;;;;;;;31.60;25.55;;;;;;;16.67;63.76;100731.94;5069977;28;20063;-74
2021/11/04 10:11:43;;;;;;;34.45;26.08;;;;;;;16.31;64.68;100712.31;5058161;28;20032;-74
2021/11/04 10:14:13;;;;;;;47.45;27.30;;;;;;;16.25;65.48;100724.78;5065459;28;20060;-72
2021/11/04 10:16:41;;;;;;;41.25;26.92;;;;;;;16.13;64.99;100690.59;5071800;28;20116;-72
2021/11/04 10:19:09;;;;;;;33.70;27.65;;;;;;;16.69;64.33;100706.25;5074559;28;20028;-73
2021/11/04 10:21:41;;;;;;;33.22;26.80;;;;;;;17.06;63.72;100717.00;5074543;28;20039;-73
2021/11/04 10:24:18;;;;;;;32.03;25.77;;;;;;;17.07;64.34;100716.09;5082059;28;20028;-73
2021/11/04 10:26:44;;;;;;;38.85;23.98;;;;;;;17.51;62.11;100719.53;5082280;28;20032;-73
2021/11/04 10:29:12;;;;;;;34.50;25.98;;;;;;;17.66;62.23;100717.41;5084281;28;20543;-73
2021/11/04 10:31:43;;;;;;;56.17;25.58;;;;;;;17.66;61.87;100696.19;5071522;28;20109;-74
2021/11/04 10:34:23;;;;;;;31.17;21.50;;;;;;;17.83;61.97;100703.75;5074636;28;20023;-74
2021/11/04 10:36:48;;;;;;;41.50;25.40;;;;;;;18.24;61.24;100691.16;5069446;28;20089;-73
2021/11/04 10:39:14;;;;;;;46.33;25.83;;;;;;;17.50;61.76;100664.69;5088149;28;20128;-74
2021/11/04 10:41:43;;;;;;;35.95;22.85;;;;;;;17.24;63.13;100651.19;5075681;28;20575;-74
2021/11/04 10:44:12;;;;;;;34.70;25.70;;;;;;;17.54;62.24;100692.03;5055264;28;20043;-73
2021/11/04 10:46:45;;;;;;;35.38;26.88;;;;;;;17.37;62.89;100654.41;5059110;28;20036;-73
2021/11/04 10:49:15;;;;;;;50.83;29.63;;;;;;;18.08;61.63;100682.75;5076718;28;20028;-76
2021/11/04 10:51:42;;;;;;;38.90;29.02;;;;;;;18.02;61.64;100673.13;5077191;28;20602;-75
2021/11/04 10:54:10;;;;;;;35.47;26.92;;;;;;;18.24;61.00;100681.41;5072446;28;20040;-75
2021/11/04 10:56:38;;;;;;;33.05;23.30;;;;;;;17.71;61.49;100678.34;5070578;28;20052;-76
2021/11/04 10:59:17;;;;;;;28.75;22.92;;;;;;;17.61;62.35;100661.78;5071063;28;20035;-75
2021/11/04 11:01:54;;;;;;;38.17;22.67;;;;;;;17.66;62.23;100670.50;5072868;28;20102;-75
2021/11/04 11:04:23;;;;;;;29.85;20.83;;;;;;;17.31;62.67;100642.19;5064882;28;20044;-73
2021/11/04 11:06:51;;;;;;;28.58;21.80;;;;;;;17.83;61.67;100634.72;5075446;28;20064;-72
2021/11/04 11:10:30;;;;;;;30.17;23.02;;;;;;;18.22;60.91;100663.78;5085413;27;20646;-73